sensor_id;sensor_type;location;lat;lon;timestamp;pressure;altitude;pressure_sealevel;temperature;humidity
69566;BME280;56777;55.930;37.524;2024-03-02T00:00:05;101724.03;;;-0.17;96.91
69566;BME280;56777;55.930;37.524;2024-03-02T00:02:45;101717.78;;;-0.09;97.14
69566;BME280;56777;55.930;37.524;2024-03-02T00:05:18;101716.78;;;-0.11;97.13
69566;BME280;56777;55.930;37.524;2024-03-02T00:07:46;101717.06;;;-0.18;97.63
69566;BME280;56777;55.930;37.524;2024-03-02T00:10:16;101715.38;;;-0.17;97.41
69566;BME280;56777;55.930;37.524;2024-03-02T00:12:47;101702.28;;;-0.20;97.14
69566;BME280;56777;55.930;37.524;2024-03-02T00:18:06;101700.03;;;-0.28;97.58
69566;BME280;56777;55.930;37.524;2024-03-02T00:20:32;101702.19;;;-0.22;97.98
69566;BME280;56777;55.930;37.524;2024-03-02T00:23:08;101437.59;;;-1.83;97.60
69566;BME280;56777;55.930;37.524;2024-03-02T00:25:50;101696.19;;;-0.33;98.15
69566;BME280;56777;55.930;37.524;2024-03-02T00:28:25;101698.22;;;-0.29;97.99
69566;BME280;56777;55.930;37.524;2024-03-02T00:33:26;101704.47;;;-0.37;98.92
69566;BME280;56777;55.930;37.524;2024-03-02T00:35:53;101707.81;;;-0.38;98.80
69566;BME280;56777;55.930;37.524;2024-03-02T00:38:19;101712.31;;;-0.35;98.69
69566;BME280;56777;55.930;37.524;2024-03-02T00:40:45;101704.56;;;-0.35;98.58
69566;BME280;56777;55.930;37.524;2024-03-02T00:45:50;101705.38;;;-0.36;99.36
69566;BME280;56777;55.930;37.524;2024-03-02T00:48:16;101704.44;;;-0.49;99.09
69566;BME280;56777;55.930;37.524;2024-03-02T00:50:42;101674.13;;;-0.63;99.56
69566;BME280;56777;55.930;37.524;2024-03-02T00:53:10;101698.78;;;-0.55;99.40
69566;BME280;56777;55.930;37.524;2024-03-02T00:55:37;101690.25;;;-0.65;99.77
69566;BME280;56777;55.930;37.524;2024-03-02T00:58:03;101722.91;;;-0.42;99.62
69566;BME280;56777;55.930;37.524;2024-03-02T01:00:29;101703.69;;;-0.58;99.49
69566;BME280;56777;55.930;37.524;2024-03-02T01:02:54;101716.50;;;-0.48;99.80
69566;BME280;56777;55.930;37.524;2024-03-02T01:05:20;101703.91;;;-0.55;100.00
69566;BME280;56777;55.930;37.524;2024-03-02T01:07:45;101713.88;;;-0.59;100.00
69566;BME280;56777;55.930;37.524;2024-03-02T01:10:11;101723.38;;;-0.58;100.00
69566;BME280;56777;55.930;37.524;2024-03-02T01:12:37;101715.78;;;-0.57;100.00
69566;BME280;56777;55.930;37.524;2024-03-02T01:15:02;101716.28;;;-0.51;100.00
69566;BME280;56777;55.930;37.524;2024-03-02T01:17:31;101693.69;;;-0.65;100.00
69566;BME280;56777;55.930;37.524;2024-03-02T01:19:56;101715.56;;;-0.60;100.00
69566;BME280;56777;55.930;37.524;2024-03-02T01:22:23;101701.66;;;-0.62;100.00
69566;BME280;56777;55.930;37.524;2024-03-02T01:24:50;101702.88;;;-0.69;100.00
69566;BME280;56777;55.930;37.524;2024-03-02T01:27:16;101668.09;;;-0.85;100.00
69566;BME280;56777;55.930;37.524;2024-03-02T01:29:42;101692.69;;;-0.67;100.00
69566;BME280;56777;55.930;37.524;2024-03-02T01:32:07;101704.09;;;-0.63;100.00
69566;BME280;56777;55.930;37.524;2024-03-02T01:34:33;101698.06;;;-0.64;100.00
69566;BME280;56777;55.930;37.524;2024-03-02T01:36:58;101694.63;;;-0.75;100.00
69566;BME280;56777;55.930;37.524;2024-03-02T01:39:24;101695.56;;;-0.74;100.00
69566;BME280;56777;55.930;37.524;2024-03-02T01:41:49;101698.47;;;-0.70;100.00
69566;BME280;56777;55.930;37.524;2024-03-02T01:44:15;101693.56;;;-0.66;100.00
69566;BME280;56777;55.930;37.524;2024-03-02T01:46:40;101646.41;;;-0.99;100.00
69566;BME280;56777;55.930;37.524;2024-03-02T01:49:06;101678.63;;;-0.82;100.00
69566;BME280;56777;55.930;37.524;2024-03-02T01:51:32;101697.38;;;-0.83;100.00
69566;BME280;56777;55.930;37.524;2024-03-02T01:53:57;101691.72;;;-0.79;100.00
69566;BME280;56777;55.930;37.524;2024-03-02T01:56:23;101702.50;;;-0.73;100.00
69566;BME280;56777;55.930;37.524;2024-03-02T01:58:49;101676.16;;;-0.81;100.00
69566;BME280;56777;55.930;37.524;2024-03-02T02:01:15;101696.31;;;-0.75;100.00
69566;BME280;56777;55.930;37.524;2024-03-02T02:03:42;101676.94;;;-0.82;100.00
69566;BME280;56777;55.930;37.524;2024-03-02T02:06:09;101689.00;;;-0.81;100.00
69566;BME280;56777;55.930;37.524;2024-03-02T02:08:37;101698.47;;;-0.70;100.00
69566;BME280;56777;55.930;37.524;2024-03-02T02:11:02;101693.47;;;-0.68;100.00
69566;BME280;56777;55.930;37.524;2024-03-02T02:13:28;101688.31;;;-0.68;100.00
69566;BME280;56777;55.930;37.524;2024-03-02T02:15:54;101663.66;;;-0.76;100.00
69566;BME280;56777;55.930;37.524;2024-03-02T02:18:19;101654.66;;;-0.81;100.00
69566;BME280;56777;55.930;37.524;2024-03-02T02:20:45;101673.63;;;-0.69;100.00
69566;BME280;56777;55.930;37.524;2024-03-02T02:23:10;101687.44;;;-0.69;100.00
69566;BME280;56777;55.930;37.524;2024-03-02T02:25:38;101661.97;;;-0.76;100.00
69566;BME280;56777;55.930;37.524;2024-03-02T02:28:04;101662.81;;;-0.65;100.00
69566;BME280;56777;55.930;37.524;2024-03-02T02:30:31;101683.09;;;-0.58;100.00
69566;BME280;56777;55.930;37.524;2024-03-02T02:32:57;101679.34;;;-0.51;100.00
69566;BME280;56777;55.930;37.524;2024-03-02T02:35:23;101633.06;;;-0.83;100.00
69566;BME280;56777;55.930;37.524;2024-03-02T02:37:53;101665.31;;;-0.55;100.00
69566;BME280;56777;55.930;37.524;2024-03-02T02:40:19;101667.78;;;-0.56;100.00
69566;BME280;56777;55.930;37.524;2024-03-02T02:42:44;101653.09;;;-0.57;100.00
69566;BME280;56777;55.930;37.524;2024-03-02T02:45:10;101653.28;;;-0.44;100.00
69566;BME280;56777;55.930;37.524;2024-03-02T02:47:40;101670.88;;;-0.38;100.00
69566;BME280;56777;55.930;37.524;2024-03-02T02:50:10;101653.63;;;-0.39;100.00
69566;BME280;56777;55.930;37.524;2024-03-02T02:52:36;101668.00;;;-0.31;100.00
69566;BME280;56777;55.930;37.524;2024-03-02T02:55:06;101659.72;;;-0.27;100.00
69566;BME280;56777;55.930;37.524;2024-03-02T02:57:33;101668.47;;;-0.25;100.00
69566;BME280;56777;55.930;37.524;2024-03-02T03:00:13;101619.19;;;-0.52;100.00
69566;BME280;56777;55.930;37.524;2024-03-02T03:02:45;101657.38;;;-0.24;100.00
69566;BME280;56777;55.930;37.524;2024-03-02T03:05:12;101663.13;;;-0.16;100.00
69566;BME280;56777;55.930;37.524;2024-03-02T03:07:40;101662.31;;;-0.15;100.00
69566;BME280;56777;55.930;37.524;2024-03-02T03:10:06;101620.50;;;-0.35;100.00
69566;BME280;56777;55.930;37.524;2024-03-02T03:12:33;101633.16;;;-0.26;100.00
69566;BME280;56777;55.930;37.524;2024-03-02T03:14:59;101644.94;;;-0.18;100.00
69566;BME280;56777;55.930;37.524;2024-03-02T03:17:25;101647.22;;;-0.11;100.00
69566;BME280;56777;55.930;37.524;2024-03-02T03:19:51;101648.91;;;-0.11;100.00
69566;BME280;56777;55.930;37.524;2024-03-02T03:22:17;101634.41;;;-0.21;100.00
69566;BME280;56777;55.930;37.524;2024-03-02T03:24:42;101653.28;;;-0.10;100.00
69566;BME280;56777;55.930;37.524;2024-03-02T03:27:08;101652.91;;;-0.15;100.00
69566;BME280;56777;55.930;37.524;2024-03-02T03:29:36;101661.34;;;-0.06;100.00
69566;BME280;56777;55.930;37.524;2024-03-02T03:32:01;101670.88;;;-0.05;100.00
69566;BME280;56777;55.930;37.524;2024-03-02T03:34:27;101661.34;;;-0.06;100.00
69566;BME280;56777;55.930;37.524;2024-03-02T03:36:54;101665.16;;;-0.01;100.00
69566;BME280;56777;55.930;37.524;2024-03-02T03:39:20;101649.38;;;-0.05;100.00
69566;BME280;56777;55.930;37.524;2024-03-02T03:41:45;101650.25;;;-0.05;100.00
69566;BME280;56777;55.930;37.524;2024-03-02T03:44:11;101663.59;;;0.02;100.00
69566;BME280;56777;55.930;37.524;2024-03-02T03:46:36;101655.78;;;0.00;100.00
69566;BME280;56777;55.930;37.524;2024-03-02T03:49:02;101621.34;;;-0.12;100.00
69566;BME280;56777;55.930;37.524;2024-03-02T03:51:29;101596.13;;;-0.28;100.00
69566;BME280;56777;55.930;37.524;2024-03-02T03:53:55;101629.41;;;-0.08;100.00
69566;BME280;56777;55.930;37.524;2024-03-02T03:56:21;101642.97;;;0.02;100.00
69566;BME280;56777;55.930;37.524;2024-03-02T03:58:46;101650.16;;;0.06;100.00
69566;BME280;56777;55.930;37.524;2024-03-02T04:01:12;101650.28;;;0.07;100.00
69566;BME280;56777;55.930;37.524;2024-03-02T04:03:38;101657.34;;;0.10;100.00
69566;BME280;56777;55.930;37.524;2024-03-02T04:06:04;101663.09;;;0.17;100.00
69566;BME280;56777;55.930;37.524;2024-03-02T04:08:29;101663.63;;;0.13;100.00
69566;BME280;56777;55.930;37.524;2024-03-02T04:10:55;101647.94;;;0.10;100.00
69566;BME280;56777;55.930;37.524;2024-03-02T04:13:21;101655.56;;;0.20;100.00
69566;BME280;56777;55.930;37.524;2024-03-02T04:15:47;101641.66;;;0.18;100.00
69566;BME280;56777;55.930;37.524;2024-03-02T04:18:12;101660.75;;;0.32;100.00
69566;BME280;56777;55.930;37.524;2024-03-02T04:20:38;101666.13;;;0.35;100.00
69566;BME280;56777;55.930;37.524;2024-03-02T04:23:03;101654.78;;;0.33;100.00
69566;BME280;56777;55.930;37.524;2024-03-02T04:25:29;101664.44;;;0.36;100.00
69566;BME280;56777;55.930;37.524;2024-03-02T04:27:55;101655.59;;;0.32;100.00
69566;BME280;56777;55.930;37.524;2024-03-02T04:30:20;101659.41;;;0.37;100.00
69566;BME280;56777;55.930;37.524;2024-03-02T04:32:46;101669.94;;;0.40;100.00
69566;BME280;56777;55.930;37.524;2024-03-02T04:35:12;101654.56;;;0.30;100.00
69566;BME280;56777;55.930;37.524;2024-03-02T04:37:38;101646.59;;;0.39;100.00
69566;BME280;56777;55.930;37.524;2024-03-02T04:40:05;101615.75;;;0.17;100.00
69566;BME280;56777;55.930;37.524;2024-03-02T04:42:34;101628.47;;;0.37;100.00
69566;BME280;56777;55.930;37.524;2024-03-02T04:44:59;101663.19;;;0.54;100.00
69566;BME280;56777;55.930;37.524;2024-03-02T04:47:25;101659.63;;;0.64;100.00
69566;BME280;56777;55.930;37.524;2024-03-02T04:49:50;101658.81;;;0.65;100.00
69566;BME280;56777;55.930;37.524;2024-03-02T04:52:16;101660.63;;;0.66;100.00
69566;BME280;56777;55.930;37.524;2024-03-02T04:54:42;101629.78;;;0.56;100.00
69566;BME280;56777;55.930;37.524;2024-03-02T04:57:27;101632.81;;;0.62;100.00
69566;BME280;56777;55.930;37.524;2024-03-02T04:59:52;101617.69;;;0.55;100.00
69566;BME280;56777;55.930;37.524;2024-03-02T05:02:18;101596.59;;;0.49;100.00
69566;BME280;56777;55.930;37.524;2024-03-02T05:04:43;101638.50;;;0.81;100.00
69566;BME280;56777;55.930;37.524;2024-03-02T05:07:09;101633.56;;;0.84;100.00
69566;BME280;56777;55.930;37.524;2024-03-02T05:09:35;101623.84;;;0.80;100.00
69566;BME280;56777;55.930;37.524;2024-03-02T05:12:00;101597.25;;;0.70;100.00
69566;BME280;56777;55.930;37.524;2024-03-02T05:14:45;101625.03;;;0.85;100.00
69566;BME280;56777;55.930;37.524;2024-03-02T05:17:11;101626.59;;;0.95;100.00
69566;BME280;56777;55.930;37.524;2024-03-02T05:19:36;101630.88;;;0.95;100.00
69566;BME280;56777;55.930;37.524;2024-03-02T05:22:02;101618.41;;;1.01;100.00
69566;BME280;56777;55.930;37.524;2024-03-02T05:24:28;101612.22;;;0.99;100.00
69566;BME280;56777;55.930;37.524;2024-03-02T05:26:54;101584.69;;;0.86;100.00
69566;BME280;56777;55.930;37.524;2024-03-02T05:29:20;101607.06;;;0.99;100.00
69566;BME280;56777;55.930;37.524;2024-03-02T05:31:46;101545.34;;;0.65;100.00
69566;BME280;56777;55.930;37.524;2024-03-02T05:34:11;101614.94;;;1.00;100.00
69566;BME280;56777;55.930;37.524;2024-03-02T05:36:37;101607.06;;;0.99;100.00
69566;BME280;56777;55.930;37.524;2024-03-02T05:39:04;101613.31;;;1.02;100.00
69566;BME280;56777;55.930;37.524;2024-03-02T05:41:31;101609.28;;;1.06;100.00
69566;BME280;56777;55.930;37.524;2024-03-02T05:43:57;101614.69;;;1.09;100.00
69566;BME280;56777;55.930;37.524;2024-03-02T05:46:23;101589.00;;;0.99;100.00
69566;BME280;56777;55.930;37.524;2024-03-02T05:48:48;101609.81;;;1.13;100.00
69566;BME280;56777;55.930;37.524;2024-03-02T05:51:14;101617.91;;;1.18;100.00
69566;BME280;56777;55.930;37.524;2024-03-02T05:53:39;101589.06;;;1.12;100.00
69566;BME280;56777;55.930;37.524;2024-03-02T05:56:05;101550.63;;;0.92;100.00
69566;BME280;56777;55.930;37.524;2024-03-02T05:58:31;101617.72;;;1.28;100.00
69566;BME280;56777;55.930;37.524;2024-03-02T06:00:59;101595.44;;;1.17;99.75
69566;BME280;56777;55.930;37.524;2024-03-02T06:03:25;101593.31;;;1.23;99.86
69566;BME280;56777;55.930;37.524;2024-03-02T06:05:51;101590.25;;;1.29;99.79
69566;BME280;56777;55.930;37.524;2024-03-02T06:08:17;101604.25;;;1.32;98.99
69566;BME280;56777;55.930;37.524;2024-03-02T06:10:43;101614.31;;;1.41;99.36
69566;BME280;56777;55.930;37.524;2024-03-02T06:13:08;101598.72;;;1.40;98.95
69566;BME280;56777;55.930;37.524;2024-03-02T06:15:34;101604.09;;;1.43;98.78
69566;BME280;56777;55.930;37.524;2024-03-02T06:18:01;101609.56;;;1.47;98.92
69566;BME280;56777;55.930;37.524;2024-03-02T06:20:26;101592.19;;;1.45;99.06
69566;BME280;56777;55.930;37.524;2024-03-02T06:22:52;101620.44;;;1.55;98.54
69566;BME280;56777;55.930;37.524;2024-03-02T06:25:17;101603.47;;;1.58;98.06
69566;BME280;56777;55.930;37.524;2024-03-02T06:27:43;101589.94;;;1.49;97.72
69566;BME280;56777;55.930;37.524;2024-03-02T06:30:09;101593.19;;;1.47;97.99
69566;BME280;56777;55.930;37.524;2024-03-02T06:32:35;101600.47;;;1.66;98.63
69566;BME280;56777;55.930;37.524;2024-03-02T06:35:00;101586.59;;;1.64;98.01
69566;BME280;56777;55.930;37.524;2024-03-02T06:37:26;101588.28;;;1.63;97.60
69566;BME280;56777;55.930;37.524;2024-03-02T06:39:51;101605.81;;;1.80;97.23
69566;BME280;56777;55.930;37.524;2024-03-02T06:42:17;101593.19;;;1.85;96.66
69566;BME280;56777;55.930;37.524;2024-03-02T06:44:42;101586.91;;;1.82;96.18
69566;BME280;56777;55.930;37.524;2024-03-02T06:47:08;101586.75;;;1.92;95.75
69566;BME280;56777;55.930;37.524;2024-03-02T06:49:33;101589.34;;;1.92;94.64
69566;BME280;56777;55.930;37.524;2024-03-02T06:52:00;101597.97;;;1.92;94.25
69566;BME280;56777;55.930;37.524;2024-03-02T06:54:26;101582.34;;;1.91;93.69
69566;BME280;56777;55.930;37.524;2024-03-02T06:56:51;101602.66;;;1.98;93.58
69566;BME280;56777;55.930;37.524;2024-03-02T06:59:17;101591.34;;;2.09;93.12
69566;BME280;56777;55.930;37.524;2024-03-02T07:01:42;101585.78;;;2.16;92.37
69566;BME280;56777;55.930;37.524;2024-03-02T07:04:09;101594.53;;;2.18;92.14
69566;BME280;56777;55.930;37.524;2024-03-02T07:06:34;101576.31;;;2.17;91.89
69566;BME280;56777;55.930;37.524;2024-03-02T07:09:00;101592.34;;;2.24;91.71
69566;BME280;56777;55.930;37.524;2024-03-02T07:11:25;101559.72;;;2.13;90.85
69566;BME280;56777;55.930;37.524;2024-03-02T07:13:51;101586.56;;;2.29;90.92
69566;BME280;56777;55.930;37.524;2024-03-02T07:16:16;101556.53;;;2.17;90.34
69566;BME280;56777;55.930;37.524;2024-03-02T07:18:55;101567.19;;;2.22;89.55
69566;BME280;56777;55.930;37.524;2024-03-02T07:21:22;101568.88;;;2.35;89.59
69566;BME280;56777;55.930;37.524;2024-03-02T07:23:48;101554.34;;;2.37;89.75
69566;BME280;56777;55.930;37.524;2024-03-02T07:26:14;101570.03;;;2.53;89.29
69566;BME280;56777;55.930;37.524;2024-03-02T07:28:46;101567.16;;;2.62;88.73
69566;BME280;56777;55.930;37.524;2024-03-02T07:31:13;101575.97;;;2.79;88.21
69566;BME280;56777;55.930;37.524;2024-03-02T07:33:38;101568.91;;;2.76;87.97
69566;BME280;56777;55.930;37.524;2024-03-02T07:36:04;101570.38;;;2.86;87.25
69566;BME280;56777;55.930;37.524;2024-03-02T07:38:30;101553.06;;;2.85;86.68
69566;BME280;56777;55.930;37.524;2024-03-02T07:40:57;101535.84;;;2.85;86.34
69566;BME280;56777;55.930;37.524;2024-03-02T07:43:23;101547.66;;;2.95;85.58
69566;BME280;56777;55.930;37.524;2024-03-02T07:45:48;101540.69;;;2.94;85.22
69566;BME280;56777;55.930;37.524;2024-03-02T07:48:14;101552.06;;;3.11;85.26
69566;BME280;56777;55.930;37.524;2024-03-02T07:50:40;101549.16;;;3.20;84.65
69566;BME280;56777;55.930;37.524;2024-03-02T07:53:06;101553.56;;;3.21;84.39
69566;BME280;56777;55.930;37.524;2024-03-02T07:55:35;101543.03;;;3.32;83.66
69566;BME280;56777;55.930;37.524;2024-03-02T07:58:01;101536.00;;;3.74;81.87
69566;BME280;56777;55.930;37.524;2024-03-02T08:00:27;101523.09;;;3.46;81.79
69566;BME280;56777;55.930;37.524;2024-03-02T08:02:53;101528.50;;;3.79;81.02
69566;BME280;56777;55.930;37.524;2024-03-02T08:05:19;101534.75;;;3.82;80.46
69566;BME280;56777;55.930;37.524;2024-03-02T08:07:45;101510.34;;;3.79;80.00
69566;BME280;56777;55.930;37.524;2024-03-02T08:10:11;101518.38;;;3.98;79.56
69566;BME280;56777;55.930;37.524;2024-03-02T08:12:37;101542.16;;;4.21;79.52
69566;BME280;56777;55.930;37.524;2024-03-02T08:15:03;101503.13;;;3.73;78.68
69566;BME280;56777;55.930;37.524;2024-03-02T08:17:30;101534.50;;;4.39;78.68
69566;BME280;56777;55.930;37.524;2024-03-02T08:19:56;101509.16;;;3.89;78.36
69566;BME280;56777;55.930;37.524;2024-03-02T08:22:22;101521.94;;;4.00;78.65
69566;BME280;56777;55.930;37.524;2024-03-02T08:24:48;101517.75;;;4.02;77.96
69566;BME280;56777;55.930;37.524;2024-03-02T08:27:14;101513.34;;;4.16;77.74
69566;BME280;56777;55.930;37.524;2024-03-02T08:29:40;101518.97;;;4.24;76.92
69566;BME280;56777;55.930;37.524;2024-03-02T08:32:06;101517.44;;;4.59;76.24
69566;BME280;56777;55.930;37.524;2024-03-02T08:34:32;101513.91;;;4.42;75.67
69566;BME280;56777;55.930;37.524;2024-03-02T08:36:59;101502.72;;;4.43;75.20
69566;BME280;56777;55.930;37.524;2024-03-02T08:39:24;101523.41;;;4.58;74.60
69566;BME280;56777;55.930;37.524;2024-03-02T08:41:50;101496.72;;;4.60;74.31
69566;BME280;56777;55.930;37.524;2024-03-02T08:44:16;101439.16;;;4.67;73.25
69566;BME280;56777;55.930;37.524;2024-03-02T08:46:43;101503.53;;;4.89;73.04
69566;BME280;56777;55.930;37.524;2024-03-02T08:49:09;101483.63;;;4.90;72.25
69566;BME280;56777;55.930;37.524;2024-03-02T08:51:35;101410.91;;;4.57;71.96
69566;BME280;56777;55.930;37.524;2024-03-02T08:54:00;101496.69;;;4.91;71.08
69566;BME280;56777;55.930;37.524;2024-03-02T08:56:51;101499.59;;;5.14;71.58
69566;BME280;56777;55.930;37.524;2024-03-02T08:59:17;101476.63;;;4.89;71.20
69566;BME280;56777;55.930;37.524;2024-03-02T09:01:42;101483.44;;;5.19;70.46
69566;BME280;56777;55.930;37.524;2024-03-02T09:04:08;101477.09;;;5.14;70.13
69566;BME280;56777;55.930;37.524;2024-03-02T09:06:34;101472.16;;;5.19;70.38
69566;BME280;56777;55.930;37.524;2024-03-02T09:09:00;101437.25;;;5.14;69.26
69566;BME280;56777;55.930;37.524;2024-03-02T09:11:26;101476.00;;;5.43;68.66
69566;BME280;56777;55.930;37.524;2024-03-02T09:13:51;101440.13;;;5.36;69.05
69566;BME280;56777;55.930;37.524;2024-03-02T09:16:18;101463.53;;;5.54;68.39
69566;BME280;56777;55.930;37.524;2024-03-02T09:18:45;101451.44;;;5.55;68.34
69566;BME280;56777;55.930;37.524;2024-03-02T09:21:10;101434.25;;;5.40;68.31
69566;BME280;56777;55.930;37.524;2024-03-02T09:23:36;101454.94;;;5.55;68.32
69566;BME280;56777;55.930;37.524;2024-03-02T09:26:01;101440.44;;;5.60;67.53
69566;BME280;56777;55.930;37.524;2024-03-02T09:28:28;101443.53;;;5.70;66.99
69566;BME280;56777;55.930;37.524;2024-03-02T09:30:53;101439.22;;;5.70;67.20
69566;BME280;56777;55.930;37.524;2024-03-02T09:33:19;101459.00;;;6.02;67.19
69566;BME280;56777;55.930;37.524;2024-03-02T09:35:45;101439.63;;;5.96;66.60
69566;BME280;56777;55.930;37.524;2024-03-02T09:38:10;101448.28;;;6.14;65.78
69566;BME280;56777;55.930;37.524;2024-03-02T09:40:36;101421.84;;;6.05;65.32
69566;BME280;56777;55.930;37.524;2024-03-02T09:43:02;101436.69;;;6.25;66.01
69566;BME280;56777;55.930;37.524;2024-03-02T09:45:29;101439.00;;;6.19;64.99
69566;BME280;56777;55.930;37.524;2024-03-02T09:47:55;101410.75;;;6.09;64.25
69566;BME280;56777;55.930;37.524;2024-03-02T09:50:20;101421.59;;;6.18;64.02
69566;BME280;56777;55.930;37.524;2024-03-02T09:52:49;101446.72;;;6.36;63.89
69566;BME280;56777;55.930;37.524;2024-03-02T09:55:20;101447.03;;;6.24;63.80
69566;BME280;56777;55.930;37.524;2024-03-02T09:57:46;101437.31;;;6.39;63.37
69566;BME280;56777;55.930;37.524;2024-03-02T10:00:15;101433.75;;;6.37;63.50
69566;BME280;56777;55.930;37.524;2024-03-02T10:02:41;101442.28;;;6.52;63.53
69566;BME280;56777;55.930;37.524;2024-03-02T10:05:08;101435.22;;;6.50;63.37
69566;BME280;56777;55.930;37.524;2024-03-02T10:07:34;101434.84;;;6.42;63.71
69566;BME280;56777;55.930;37.524;2024-03-02T10:10:12;101442.22;;;6.70;63.49
69566;BME280;56777;55.930;37.524;2024-03-02T10:12:38;101441.09;;;6.65;63.09
69566;BME280;56777;55.930;37.524;2024-03-02T10:15:04;101412.31;;;6.43;62.57
69566;BME280;56777;55.930;37.524;2024-03-02T10:17:31;101452.06;;;6.77;61.36
69566;BME280;56777;55.930;37.524;2024-03-02T10:19:56;101439.00;;;6.76;60.75
69566;BME280;56777;55.930;37.524;2024-03-02T10:22:23;101392.66;;;6.49;62.02
69566;BME280;56777;55.930;37.524;2024-03-02T10:24:49;101431.38;;;6.81;62.79
69566;BME280;56777;55.930;37.524;2024-03-02T10:27:22;101432.06;;;6.96;62.91
69566;BME280;56777;55.930;37.524;2024-03-02T10:29:49;101435.97;;;6.86;62.54
69566;BME280;56777;55.930;37.524;2024-03-02T10:32:15;101427.56;;;6.72;62.43
69566;BME280;56777;55.930;37.524;2024-03-02T10:34:44;101430.00;;;6.89;62.55
69566;BME280;56777;55.930;37.524;2024-03-02T10:37:11;101441.13;;;6.85;62.56
69566;BME280;56777;55.930;37.524;2024-03-02T10:39:37;101421.56;;;6.75;62.63
69566;BME280;56777;55.930;37.524;2024-03-02T10:42:06;101427.06;;;6.81;62.49
69566;BME280;56777;55.930;37.524;2024-03-02T10:44:32;101432.28;;;6.81;62.05
69566;BME280;56777;55.930;37.524;2024-03-02T10:47:01;101422.53;;;6.58;62.04
69566;BME280;56777;55.930;37.524;2024-03-02T10:49:28;101423.28;;;6.94;62.14
69566;BME280;56777;55.930;37.524;2024-03-02T10:51:54;101382.66;;;6.59;61.91
69566;BME280;56777;55.930;37.524;2024-03-02T10:54:20;101423.00;;;6.88;61.75
69566;BME280;56777;55.930;37.524;2024-03-02T10:56:51;101389.13;;;6.67;61.40
69566;BME280;56777;55.930;37.524;2024-03-02T10:59:34;101432.75;;;6.92;61.05
69566;BME280;56777;55.930;37.524;2024-03-02T11:02:02;101424.88;;;6.90;61.40
69566;BME280;56777;55.930;37.524;2024-03-02T11:04:30;101384.09;;;6.71;61.62
69566;BME280;56777;55.930;37.524;2024-03-02T11:07:05;101419.84;;;6.95;61.81
69566;BME280;56777;55.930;37.524;2024-03-02T11:09:34;101423.41;;;6.97;61.76
69566;BME280;56777;55.930;37.524;2024-03-02T11:14:31;101374.63;;;6.93;61.30
69566;BME280;56777;55.930;37.524;2024-03-02T11:17:01;101410.22;;;7.13;60.96
69566;BME280;56777;55.930;37.524;2024-03-02T11:19:29;101382.47;;;6.94;61.09
69566;BME280;56777;55.930;37.524;2024-03-02T11:21:56;101401.56;;;6.93;61.67
69566;BME280;56777;55.930;37.524;2024-03-02T11:26:49;101400.06;;;7.19;60.82
69566;BME280;56777;55.930;37.524;2024-03-02T11:32:01;101408.72;;;7.18;60.33
69566;BME280;56777;55.930;37.524;2024-03-02T11:34:34;101382.78;;;7.21;60.18
69566;BME280;56777;55.930;37.524;2024-03-02T11:37:03;101394.97;;;7.22;60.44
69566;BME280;56777;55.930;37.524;2024-03-02T11:39:29;101393.63;;;7.32;60.11
69566;BME280;56777;55.930;37.524;2024-03-02T11:41:58;101397.28;;;7.36;60.14
69566;BME280;56777;55.930;37.524;2024-03-02T11:44:28;101401.66;;;7.37;59.93
69566;BME280;56777;55.930;37.524;2024-03-02T11:47:01;101399.19;;;7.40;60.31
69566;BME280;56777;55.930;37.524;2024-03-02T11:52:02;101377.75;;;7.26;60.89
69566;BME280;56777;55.930;37.524;2024-03-02T11:54:29;101375.97;;;7.25;61.06
69566;BME280;56777;55.930;37.524;2024-03-02T11:56:56;101364.91;;;7.31;60.96
69566;BME280;56777;55.930;37.524;2024-03-02T11:59:24;101228.31;;;6.42;61.07
69566;BME280;56777;55.930;37.524;2024-03-02T12:01:50;101360.53;;;7.30;61.39
69566;BME280;56777;55.930;37.524;2024-03-02T12:04:16;101371.09;;;7.33;61.36
69566;BME280;56777;55.930;37.524;2024-03-02T12:06:41;101349.41;;;7.34;60.99
69566;BME280;56777;55.930;37.524;2024-03-02T12:09:09;101360.84;;;7.37;61.69
69566;BME280;56777;55.930;37.524;2024-03-02T12:11:37;101359.06;;;7.36;61.27
69566;BME280;56777;55.930;37.524;2024-03-02T12:14:02;101354.41;;;7.29;61.47
69566;BME280;56777;55.930;37.524;2024-03-02T12:16:29;101360.66;;;7.33;61.86
69566;BME280;56777;55.930;37.524;2024-03-02T12:18:55;101352.25;;;7.19;61.38
69566;BME280;56777;55.930;37.524;2024-03-02T12:21:21;101349.03;;;7.25;61.19
69566;BME280;56777;55.930;37.524;2024-03-02T12:23:46;101339.53;;;7.27;61.06
69566;BME280;56777;55.930;37.524;2024-03-02T12:26:12;101362.56;;;7.37;60.45
69566;BME280;56777;55.930;37.524;2024-03-02T12:28:38;101364.97;;;7.32;60.71
69566;BME280;56777;55.930;37.524;2024-03-02T12:31:03;101326.44;;;7.25;60.08
69566;BME280;56777;55.930;37.524;2024-03-02T12:33:29;101353.34;;;7.45;60.44
69566;BME280;56777;55.930;37.524;2024-03-02T12:35:57;101341.94;;;7.43;59.81
69566;BME280;56777;55.930;37.524;2024-03-02T12:38:23;101344.66;;;7.46;59.66
69566;BME280;56777;55.930;37.524;2024-03-02T12:40:51;101335.13;;;7.47;59.79
69566;BME280;56777;55.930;37.524;2024-03-02T12:43:17;101329.66;;;7.40;59.40
69566;BME280;56777;55.930;37.524;2024-03-02T12:45:43;101341.41;;;7.52;58.95
69566;BME280;56777;55.930;37.524;2024-03-02T12:48:08;101348.59;;;7.57;58.73
69566;BME280;56777;55.930;37.524;2024-03-02T12:50:34;101356.53;;;7.60;58.21
69566;BME280;56777;55.930;37.524;2024-03-02T12:53:00;101311.84;;;7.51;57.10
69566;BME280;56777;55.930;37.524;2024-03-02T12:55:25;101332.38;;;7.64;55.71
69566;BME280;56777;55.930;37.524;2024-03-02T12:57:52;101348.28;;;7.71;54.68